Time;durP1;ratioP1;P1;durP2;ratioP2;P2;SDS_P1;SDS_P2;PMS_P1;PMS_P2;Temp;Humidity;BMP_temperature;BMP_pressure;BME280_temperature;BME280_humidity;BME280_pressure;Samples;Min_cycle;Max_cycle;Signal;HPM_P1;HPM_P2
2022/12/28 00:01:42;;;;;;;13.43;6.60;;;5.80;99.90;;;;;;5063522;28;20042;-69
2022/12/28 00:04:12;;;;;;;12.63;6.75;;;5.80;99.90;;;;;;5046925;28;20488;-70
2022/12/28 00:06:37;;;;;;;20.98;7.72;;;5.80;99.90;;;;;;5048933;28;20064;-69
2022/12/28 00:09:03;;;;;;;15.52;6.65;;;5.80;99.90;;;;;;5064218;28;20041;-70
2022/12/28 00:11:29;;;;;;;14.98;6.88;;;5.80;99.90;;;;;;5063406;28;20598;-69
2022/12/28 00:13:56;;;;;;;16.08;6.97;;;5.90;99.90;;;;;;5046438;28;20036;-70
2022/12/28 00:16:29;;;;;;;14.65;6.93;;;5.80;99.90;;;;;;5046609;28;20068;-69
2022/12/28 00:18:57;;;;;;;13.80;6.50;;;5.80;99.90;;;;;;5064168;28;20056;-69
2022/12/28 00:21:23;;;;;;;15.48;7.18;;;5.80;99.90;;;;;;5077518;28;20321;-69
2022/12/28 00:23:54;;;;;;;15.32;6.55;;;5.90;99.90;;;;;;5062645;28;20123;-69
2022/12/28 00:26:19;;;;;;;15.40;7.32;;;5.90;99.90;;;;;;5062936;28;20520;-69
2022/12/28 00:28:46;;;;;;;14.70;7.93;;;5.90;99.90;;;;;;5047001;28;20041;-69
2022/12/28 00:31:12;;;;;;;14.63;7.20;;;5.90;99.90;;;;;;5047014;28;20063;-69
2022/12/28 00:33:38;;;;;;;16.50;8.00;;;5.90;99.90;;;;;;5046571;28;20080;-69
2022/12/28 00:36:04;;;;;;;16.35;7.90;;;5.80;99.90;;;;;;5062593;28;20516;-69
2022/12/28 00:38:30;;;;;;;15.75;8.98;;;5.90;99.90;;;;;;5061084;28;20041;-69
2022/12/28 00:40:57;;;;;;;16.42;8.07;;;5.90;99.90;;;;;;5045858;28;20060;-69
2022/12/28 00:43:23;;;;;;;15.88;8.35;;;5.90;99.90;;;;;;5065851;28;20048;-70
2022/12/28 00:45:48;;;;;;;12.40;6.93;;;5.90;99.90;;;;;;5046553;28;20045;-69
2022/12/28 00:48:14;;;;;;;40.42;8.20;;;5.90;99.90;;;;;;5066037;28;20396;-69
2022/12/28 00:50:41;;;;;;;16.23;7.22;;;5.90;99.90;;;;;;5048091;28;20036;-69
2022/12/28 00:53:07;;;;;;;12.93;7.97;;;5.90;99.90;;;;;;5064729;28;20454;-69
2022/12/28 00:55:34;;;;;;;15.95;7.55;;;6.00;99.90;;;;;;5045811;28;20035;-69
2022/12/28 00:58:00;;;;;;;13.00;7.13;;;6.00;99.90;;;;;;5066963;28;20040;-69
2022/12/28 01:00:27;;;;;;;19.23;8.27;;;6.00;99.90;;;;;;5048164;28;20048;-70
2022/12/28 01:02:53;;;;;;;12.93;7.45;;;6.00;99.90;;;;;;5062114;28;20041;-70
2022/12/28 01:05:19;;;;;;;14.60;8.15;;;6.00;99.90;;;;;;5062670;28;20040;-69
2022/12/28 01:07:45;;;;;;;14.48;7.22;;;6.00;99.90;;;;;;5049250;28;20045;-69
2022/12/28 01:10:11;;;;;;;15.07;7.53;;;6.10;99.90;;;;;;5066312;28;20404;-70
2022/12/28 01:12:37;;;;;;;15.65;7.93;;;6.10;99.90;;;;;;5065934;28;20039;-70
2022/12/28 01:15:03;;;;;;;14.57;8.75;;;6.10;99.90;;;;;;5049931;28;20044;-70
2022/12/28 01:17:29;;;;;;;13.45;7.57;;;6.10;99.90;;;;;;5046544;28;20055;-69
2022/12/28 01:19:55;;;;;;;13.73;7.43;;;6.10;99.90;;;;;;5047559;28;20055;-69
2022/12/28 01:22:20;;;;;;;13.13;7.68;;;6.10;99.90;;;;;;5064733;28;20040;-69
2022/12/28 01:24:46;;;;;;;14.88;6.97;;;6.20;99.90;;;;;;5080358;28;20050;-70
2022/12/28 01:27:12;;;;;;;16.05;7.55;;;6.20;99.90;;;;;;5065105;28;20033;-70
2022/12/28 01:29:37;;;;;;;15.27;6.97;;;6.20;99.90;;;;;;5048400;28;20119;-69
2022/12/28 01:32:03;;;;;;;12.30;7.07;;;6.20;99.90;;;;;;5065497;28;20041;-70
2022/12/28 01:34:29;;;;;;;14.25;7.55;;;6.20;99.90;;;;;;5064691;28;20063;-69
2022/12/28 01:36:54;;;;;;;13.75;7.90;;;6.20;99.90;;;;;;5065074;28;20512;-69
2022/12/28 01:39:20;;;;;;;16.00;7.32;;;6.20;99.90;;;;;;5063367;28;20041;-69
2022/12/28 01:41:45;;;;;;;12.77;7.20;;;6.20;99.90;;;;;;5065457;28;20045;-70
2022/12/28 01:44:11;;;;;;;14.90;7.80;;;6.30;99.90;;;;;;5048879;28;20125;-70
2022/12/28 01:46:39;;;;;;;21.02;8.55;;;6.30;99.90;;;;;;5065330;28;20040;-69
2022/12/28 01:49:33;;;;;;;14.02;7.45;;;6.20;99.90;;;;;;5063228;28;20086;-69
2022/12/28 01:52:20;;;;;;;14.55;8.32;;;6.30;99.90;;;;;;5061940;28;20041;-69
2022/12/28 01:54:52;;;;;;;18.80;8.80;;;6.30;99.90;;;;;;5046571;28;20125;-69
2022/12/28 01:57:23;;;;;;;13.27;7.93;;;6.30;99.90;;;;;;5066886;28;20041;-70
2022/12/28 02:00:17;;;;;;;15.48;8.00;;;6.30;99.90;;;;;;5049234;28;20496;-69
2022/12/28 02:03:07;;;;;;;16.15;8.43;;;6.30;99.90;;;;;;5043019;28;20055;-70
2022/12/28 02:05:37;;;;;;;17.65;8.48;;;6.30;99.90;;;;;;5063238;28;20458;-69
2022/12/28 02:08:34;;;;;;;18.48;9.90;;;6.30;99.90;;;;;;5061816;28;20052;-70
2022/12/28 02:11:01;;;;;;;21.33;9.50;;;6.30;99.90;;;;;;5065236;28;20037;-69
2022/12/28 02:13:27;;;;;;;23.25;10.32;;;6.20;99.90;;;;;;5064253;28;20044;-69
2022/12/28 02:15:52;;;;;;;15.85;9.55;;;6.20;99.90;;;;;;5064726;28;20457;-70
2022/12/28 02:18:20;;;;;;;18.48;10.50;;;6.20;99.90;;;;;;5062113;28;20167;-69
2022/12/28 02:21:19;;;;;;;18.45;9.93;;;6.20;99.90;;;;;;5066594;28;20492;-69
2022/12/28 02:23:56;;;;;;;14.57;8.25;;;6.20;99.90;;;;;;5078931;28;20048;-70
2022/12/28 02:26:30;;;;;;;18.63;9.82;;;6.10;99.90;;;;;;5049729;28;20052;-70
2022/12/28 02:28:56;;;;;;;20.83;10.88;;;6.10;99.90;;;;;;5047229;28;20416;-69
2022/12/28 02:31:49;;;;;;;20.98;9.88;;;6.10;99.90;;;;;;5048347;28;20040;-69
2022/12/28 02:34:26;;;;;;;17.15;10.23;;;6.10;99.90;;;;;;5061879;28;20040;-70
2022/12/28 02:37:09;;;;;;;15.43;9.23;;;6.10;99.90;;;;;;5065097;28;20123;-70
2022/12/28 02:39:44;;;;;;;18.77;9.13;;;6.10;99.90;;;;;;5045352;28;20396;-70
2022/12/28 02:42:11;;;;;;;20.33;10.77;;;6.10;99.90;;;;;;5058101;28;20052;-70
2022/12/28 02:50:09;;;;;;;17.98;11.07;;;6.10;99.90;;;;;;5041688;28;20012;-70
2022/12/28 02:52:46;;;;;;;16.80;9.98;;;6.10;99.90;;;;;;5009840;28;20446;-70
2022/12/28 02:58:30;;;;;;;20.13;11.07;;;6.20;99.90;;;;;;5041453;28;20037;-70
2022/12/28 03:01:07;;;;;;;19.35;10.40;;;6.20;99.90;;;;;;5058274;28;20053;-70
2022/12/28 03:03:33;;;;;;;19.08;9.88;;;6.30;99.90;;;;;;5056701;28;20124;-70
2022/12/28 03:09:47;;;;;;;21.33;11.52;;;6.30;99.90;;;;;;5040644;28;20053;-70
2022/12/28 03:12:30;;;;;;;21.70;11.05;;;6.40;99.90;;;;;;5022701;28;20456;-70
2022/12/28 03:15:03;;;;;;;16.33;10.02;;;6.40;99.90;;;;;;5006965;28;20405;-70
2022/12/28 03:31:35;;;;;;;17.75;10.43;;;6.60;99.90;;;;;;5042411;28;20121;-70
2022/12/28 03:34:05;;;;;;;16.25;9.98;;;6.60;99.90;;;;;;5007177;28;20041;-70
2022/12/28 03:36:52;;;;;;;18.95;11.00;;;6.60;99.90;;;;;;5026235;28;20406;-70
2022/12/28 03:39:46;;;;;;;21.15;12.48;;;6.60;99.90;;;;;;5022068;28;20041;-70
2022/12/28 03:45:15;;;;;;;16.55;11.23;;;6.70;99.90;;;;;;5023644;28;20045;-70
2022/12/28 03:47:43;;;;;;;15.93;10.20;;;6.70;99.90;;;;;;5041580;28;20103;-70
2022/12/28 03:50:10;;;;;;;17.20;9.82;;;6.70;99.90;;;;;;5008003;28;20087;-70
2022/12/28 03:52:36;;;;;;;16.90;11.23;;;6.70;99.90;;;;;;5040941;28;20041;-70
2022/12/28 03:55:02;;;;;;;15.73;10.43;;;6.70;99.90;;;;;;5024879;28;20441;-70
2022/12/28 03:57:28;;;;;;;14.30;9.27;;;6.70;99.90;;;;;;5023877;28;20036;-70
2022/12/28 03:59:53;;;;;;;18.10;10.60;;;6.80;99.90;;;;;;5057651;28;20045;-70
2022/12/28 04:02:19;;;;;;;15.77;10.00;;;6.80;99.90;;;;;;5024098;28;20068;-71
2022/12/28 04:04:45;;;;;;;16.52;10.75;;;6.80;99.90;;;;;;5005069;28;20033;-70
2022/12/28 04:07:10;;;;;;;14.25;10.38;;;6.80;99.90;;;;;;5022811;28;20045;-70
2022/12/28 04:09:36;;;;;;;13.48;9.48;;;6.80;99.90;;;;;;5008266;28;20043;-70
2022/12/28 04:12:01;;;;;;;16.45;9.98;;;6.80;99.90;;;;;;5008008;28;20474;-71
2022/12/28 04:14:27;;;;;;;14.15;8.65;;;6.80;99.90;;;;;;5007711;28;20038;-70
2022/12/28 04:16:52;;;;;;;16.10;10.32;;;6.80;99.90;;;;;;5026009;28;20048;-70
2022/12/28 04:19:18;;;;;;;16.60;10.88;;;6.90;99.90;;;;;;5061125;28;20473;-70
2022/12/28 04:21:43;;;;;;;15.90;10.05;;;6.90;99.90;;;;;;5028705;28;20099;-70
2022/12/28 04:24:09;;;;;;;14.63;10.55;;;6.90;99.90;;;;;;5045448;28;20037;-70
2022/12/28 04:26:35;;;;;;;13.45;8.18;;;6.90;99.90;;;;;;5010660;28;20045;-70
2022/12/28 04:29:01;;;;;;;16.25;11.20;;;6.90;99.90;;;;;;5026947;28;20041;-71
2022/12/28 04:31:28;;;;;;;13.38;9.00;;;6.90;99.90;;;;;;5027782;28;20463;-70
2022/12/28 04:33:56;;;;;;;14.18;9.82;;;6.90;99.90;;;;;;5042591;28;20048;-70
2022/12/28 04:36:21;;;;;;;17.05;10.50;;;7.00;99.90;;;;;;5058462;28;20038;-70
2022/12/28 04:38:47;;;;;;;17.02;11.50;;;7.00;99.90;;;;;;5025803;28;20049;-70
2022/12/28 04:41:12;;;;;;;13.75;9.95;;;7.00;99.90;;;;;;5037033;28;20083;-70
2022/12/28 04:43:39;;;;;;;16.75;9.02;;;7.00;99.90;;;;;;5066003;28;20036;-70
2022/12/28 04:46:11;;;;;;;16.83;10.88;;;7.00;99.90;;;;;;5064670;28;20488;-71
2022/12/28 04:48:37;;;;;;;17.40;11.77;;;7.10;99.90;;;;;;5067063;28;20135;-70
2022/12/28 04:51:08;;;;;;;19.48;11.98;;;7.10;99.90;;;;;;5066299;28;20040;-70
2022/12/28 04:53:38;;;;;;;18.42;11.00;;;7.10;99.90;;;;;;5064832;28;20389;-70
2022/12/28 04:56:05;;;;;;;17.00;10.38;;;7.10;99.90;;;;;;5050048;28;20045;-71
2022/12/28 04:58:30;;;;;;;18.35;12.15;;;7.10;99.90;;;;;;5068449;28;20094;-70
2022/12/28 05:01:08;;;;;;;19.92;12.57;;;7.20;99.90;;;;;;5049204;28;20515;-70
2022/12/28 05:03:35;;;;;;;19.42;11.68;;;7.20;99.90;;;;;;5064383;28;20037;-71
2022/12/28 05:06:03;;;;;;;19.38;11.82;;;7.20;99.90;;;;;;5065833;28;20127;-71
2022/12/28 05:08:31;;;;;;;17.48;11.23;;;7.20;99.90;;;;;;5064033;28;20563;-71
2022/12/28 05:11:05;;;;;;;20.38;13.80;;;7.20;99.90;;;;;;5079599;28;20040;-70
2022/12/28 05:13:32;;;;;;;21.83;13.05;;;7.30;99.90;;;;;;5049891;28;20048;-70
2022/12/28 05:16:06;;;;;;;22.20;13.25;;;7.30;99.90;;;;;;5065172;28;20491;-71
2022/12/28 05:18:32;;;;;;;21.40;13.60;;;7.30;99.90;;;;;;5049923;28;20045;-71
2022/12/28 05:21:03;;;;;;;20.00;12.77;;;7.30;99.90;;;;;;5065869;28;20044;-71
2022/12/28 05:23:30;;;;;;;19.50;12.38;;;7.40;99.90;;;;;;5066527;28;20044;-71
2022/12/28 05:25:56;;;;;;;23.73;13.75;;;7.40;99.90;;;;;;5049973;28;20049;-71
2022/12/28 05:28:22;;;;;;;21.75;13.07;;;7.40;99.90;;;;;;5062210;28;20047;-71
2022/12/28 05:30:48;;;;;;;22.85;15.20;;;7.50;99.90;;;;;;5049398;28;20397;-71
2022/12/28 05:33:13;;;;;;;26.67;13.35;;;7.50;99.90;;;;;;5049729;28;20033;-71
2022/12/28 05:35:39;;;;;;;23.30;14.32;;;7.50;99.90;;;;;;5049587;28;20125;-71
2022/12/28 05:38:05;;;;;;;25.42;15.30;;;7.60;99.90;;;;;;5050129;28;20063;-71
2022/12/28 05:40:30;;;;;;;23.83;14.40;;;7.60;99.90;;;;;;5063246;28;20059;-71
2022/12/28 05:42:56;;;;;;;21.15;15.68;;;7.70;99.90;;;;;;5064712;28;20056;-71
2022/12/28 05:45:21;;;;;;;19.13;12.40;;;7.70;99.90;;;;;;5048842;28;20155;-71
2022/12/28 05:47:47;;;;;;;26.35;16.38;;;7.70;99.90;;;;;;5066343;28;20043;-71
2022/12/28 05:50:13;;;;;;;23.38;14.90;;;7.70;99.90;;;;;;5063560;28;20033;-71
2022/12/28 05:52:38;;;;;;;24.08;15.77;;;7.80;99.90;;;;;;5047990;28;20040;-71
2022/12/28 05:55:04;;;;;;;20.02;14.00;;;7.80;99.90;;;;;;5049902;28;20059;-71
2022/12/28 05:57:30;;;;;;;28.17;16.30;;;7.80;99.90;;;;;;5047586;28;20119;-71
2022/12/28 05:59:55;;;;;;;24.08;13.73;;;7.80;99.90;;;;;;5048870;28;20399;-71
2022/12/28 06:02:24;;;;;;;20.42;13.63;;;7.90;99.90;;;;;;5049935;28;20093;-71
2022/12/28 06:04:50;;;;;;;27.02;14.68;;;7.90;99.90;;;;;;5049586;28;20075;-71
2022/12/28 06:07:15;;;;;;;17.92;11.80;;;8.00;99.90;;;;;;5049164;28;20056;-71
2022/12/28 06:09:41;;;;;;;23.25;14.40;;;8.00;99.90;;;;;;5082566;28;20522;-71
2022/12/28 06:12:07;;;;;;;21.40;13.90;;;8.00;99.90;;;;;;5062036;28;20045;-71
2022/12/28 06:14:32;;;;;;;23.15;14.27;;;8.00;99.90;;;;;;5066220;28;20035;-70
2022/12/28 06:16:58;;;;;;;20.90;14.27;;;8.10;99.90;;;;;;5066133;28;20036;-71
2022/12/28 06:19:23;;;;;;;19.85;14.55;;;8.10;99.90;;;;;;5064041;28;20530;-71
2022/12/28 06:21:49;;;;;;;20.75;13.88;;;8.10;99.90;;;;;;5062533;28;20051;-71
2022/12/28 06:24:16;;;;;;;18.38;12.88;;;8.10;99.90;;;;;;5048639;28;20063;-71
2022/12/28 06:26:42;;;;;;;22.85;13.93;;;8.10;99.90;;;;;;5063299;28;20432;-71
2022/12/28 06:29:08;;;;;;;19.02;12.00;;;8.20;99.90;;;;;;5064822;28;20037;-70
2022/12/28 06:31:37;;;;;;;17.00;11.93;;;8.20;99.90;;;;;;5047877;28;20044;-71
2022/12/28 06:34:05;;;;;;;18.88;12.63;;;8.20;99.90;;;;;;5062406;28;20487;-72
2022/12/28 06:36:33;;;;;;;18.27;12.07;;;8.20;99.90;;;;;;5048811;28;20047;-71
2022/12/28 06:39:01;;;;;;;19.73;12.82;;;8.30;99.90;;;;;;5063961;28;20056;-71
2022/12/28 06:41:27;;;;;;;18.17;11.55;;;8.30;99.90;;;;;;5048770;28;20242;-71
2022/12/28 06:43:54;;;;;;;17.58;13.23;;;8.40;99.90;;;;;;5064723;28;20040;-71
2022/12/28 06:46:21;;;;;;;20.10;14.55;;;8.40;99.90;;;;;;5047313;28;20134;-71
2022/12/28 06:48:47;;;;;;;20.48;13.70;;;8.40;99.90;;;;;;5063139;28;20045;-71
2022/12/28 06:51:14;;;;;;;17.60;11.70;;;8.40;99.90;;;;;;5049360;28;20043;-71
2022/12/28 06:53:40;;;;;;;16.40;10.90;;;8.40;99.90;;;;;;5060649;28;20033;-71
2022/12/28 06:56:07;;;;;;;18.10;12.00;;;8.40;99.90;;;;;;5064828;28;20040;-71
2022/12/28 06:58:33;;;;;;;19.73;12.70;;;8.50;99.90;;;;;;5062239;28;20045;-71
2022/12/28 07:01:19;;;;;;;18.27;12.73;;;8.40;99.90;;;;;;5063086;28;20033;-71
2022/12/28 07:03:46;;;;;;;19.45;12.32;;;8.40;99.90;;;;;;5061889;28;20043;-71
2022/12/28 07:06:13;;;;;;;17.20;11.32;;;8.50;99.90;;;;;;5049434;28;20040;-71
2022/12/28 07:08:38;;;;;;;17.77;11.98;;;8.50;99.90;;;;;;5062519;28;20166;-71
2022/12/28 07:11:13;;;;;;;22.25;12.85;;;8.50;99.90;;;;;;5061820;28;20127;-71
2022/12/28 07:13:39;;;;;;;21.50;11.70;;;8.50;99.90;;;;;;5061672;28;20445;-71
2022/12/28 07:16:16;;;;;;;16.05;12.52;;;8.60;99.90;;;;;;5044582;28;20119;-71
2022/12/28 07:18:42;;;;;;;20.58;12.07;;;8.60;99.90;;;;;;5064934;28;20554;-70
2022/12/28 07:21:15;;;;;;;22.77;13.73;;;8.60;99.90;;;;;;5046669;28;20516;-71
2022/12/28 07:23:41;;;;;;;20.77;12.60;;;8.60;99.90;;;;;;5047382;28;20044;-71
2022/12/28 07:26:12;;;;;;;20.52;12.90;;;8.60;99.90;;;;;;5047989;28;20523;-71
2022/12/28 07:28:40;;;;;;;20.80;12.13;;;8.60;99.90;;;;;;5047064;28;20052;-71
2022/12/28 07:31:11;;;;;;;25.05;14.13;;;8.70;99.90;;;;;;5048137;28;20151;-71
2022/12/28 07:33:37;;;;;;;21.23;12.40;;;8.70;99.90;;;;;;5062265;28;20033;-71
2022/12/28 07:36:06;;;;;;;21.58;12.55;;;8.70;99.90;;;;;;5063130;28;20393;-71
2022/12/28 07:38:32;;;;;;;19.92;11.88;;;8.70;99.90;;;;;;5044572;28;20447;-71
2022/12/28 07:41:37;;;;;;;22.27;12.55;;;8.80;99.90;;;;;;5061322;28;20058;-72
2022/12/28 07:44:02;;;;;;;19.60;12.18;;;8.80;99.90;;;;;;4989622;28;20052;-71
2022/12/28 07:46:30;;;;;;;20.25;12.23;;;8.80;99.90;;;;;;5006544;28;20053;-71
2022/12/28 07:48:56;;;;;;;20.42;11.93;;;8.90;99.90;;;;;;5004430;28;20042;-71
2022/12/28 07:51:34;;;;;;;16.92;11.30;;;8.90;99.90;;;;;;5006354;28;20456;-69
2022/12/28 07:54:00;;;;;;;21.90;14.45;;;8.90;99.90;;;;;;5006052;28;20056;-69
2022/12/28 07:56:27;;;;;;;17.83;11.95;;;8.90;99.90;;;;;;5006604;28;20124;-70
2022/12/28 07:58:55;;;;;;;18.60;11.20;;;9.00;99.90;;;;;;5004008;28;20558;-69
2022/12/28 08:01:24;;;;;;;22.08;13.23;;;9.00;99.90;;;;;;5015781;28;20041;-69
2022/12/28 08:03:54;;;;;;;18.63;11.32;;;9.00;99.90;;;;;;4990645;28;20045;-69
2022/12/28 08:06:23;;;;;;;23.25;13.88;;;9.00;99.90;;;;;;5003546;28;20053;-69
2022/12/28 08:08:59;;;;;;;24.33;13.23;;;9.00;99.90;;;;;;5021475;28;20046;-69
2022/12/28 08:11:28;;;;;;;22.10;14.65;;;9.00;99.90;;;;;;5004418;28;20397;-70
2022/12/28 08:13:55;;;;;;;20.17;13.88;;;9.00;99.90;;;;;;5019418;28;20160;-69
2022/12/28 08:16:22;;;;;;;16.23;11.60;;;9.00;99.90;;;;;;5021058;28;20037;-69
2022/12/28 08:18:48;;;;;;;18.23;12.68;;;9.00;99.90;;;;;;5050308;28;20057;-69
2022/12/28 08:21:20;;;;;;;20.58;13.95;;;9.00;99.90;;;;;;5063110;28;20033;-69
2022/12/28 08:23:47;;;;;;;18.75;13.95;;;9.00;99.90;;;;;;5078804;28;20048;-69
2022/12/28 08:26:19;;;;;;;19.00;13.57;;;9.00;99.90;;;;;;5045578;28;20055;-70
2022/12/28 08:28:47;;;;;;;19.42;12.90;;;9.00;99.90;;;;;;5077864;28;20041;-69
2022/12/28 08:31:15;;;;;;;21.58;13.23;;;9.10;99.90;;;;;;5063487;28;20075;-69
2022/12/28 08:33:41;;;;;;;18.13;13.05;;;9.10;99.90;;;;;;5047438;28;20045;-70
2022/12/28 08:36:08;;;;;;;16.52;11.43;;;9.10;99.90;;;;;;5048221;28;20086;-69
2022/12/28 08:38:34;;;;;;;16.58;11.07;;;9.10;99.90;;;;;;5045822;28;20055;-69
2022/12/28 08:41:02;;;;;;;17.02;10.32;;;9.10;99.90;;;;;;5062793;28;20147;-69
2022/12/28 08:43:30;;;;;;;16.60;11.23;;;9.10;99.90;;;;;;5060260;28;20469;-69
2022/12/28 08:46:01;;;;;;;13.95;9.05;;;9.10;99.90;;;;;;5058851;28;20040;-69
2022/12/28 08:48:28;;;;;;;12.13;8.13;;;9.10;99.90;;;;;;5047423;28;20040;-70
2022/12/28 08:50:54;;;;;;;12.60;8.38;;;9.10;99.90;;;;;;5043022;28;20132;-69
2022/12/28 08:53:23;;;;;;;10.75;8.05;;;9.10;99.90;;;;;;5062029;28;20037;-70
2022/12/28 08:55:49;;;;;;;9.77;6.25;;;9.10;99.90;;;;;;5062067;28;20064;-69
2022/12/28 08:58:14;;;;;;;10.45;7.10;;;9.10;99.90;;;;;;5064442;28;20074;-69
2022/12/28 09:00:40;;;;;;;10.68;6.63;;;9.10;99.90;;;;;;5043375;28;20123;-69
2022/12/28 09:03:06;;;;;;;8.98;5.90;;;9.10;99.90;;;;;;5063252;28;20634;-70
2022/12/28 09:05:31;;;;;;;7.95;5.63;;;9.10;99.90;;;;;;5067842;28;20045;-69
2022/12/28 09:07:57;;;;;;;8.60;6.00;;;9.10;99.90;;;;;;5065111;28;20048;-70
2022/12/28 09:10:22;;;;;;;8.98;5.78;;;9.10;99.90;;;;;;5066612;28;20385;-70
2022/12/28 09:12:48;;;;;;;8.07;5.22;;;9.00;99.90;;;;;;5050564;28;20048;-70
2022/12/28 09:15:13;;;;;;;7.80;4.97;;;9.10;99.90;;;;;;5062325;28;20040;-69
2022/12/28 09:17:39;;;;;;;7.68;5.10;;;9.10;99.90;;;;;;5063119;28;20158;-70
2022/12/28 09:20:05;;;;;;;8.95;5.45;;;9.10;99.90;;;;;;5049458;28;20511;-69
2022/12/28 09:22:30;;;;;;;8.48;5.47;;;9.10;99.90;;;;;;5050684;28;20043;-69
2022/12/28 09:24:56;;;;;;;11.27;6.78;;;9.10;99.90;;;;;;5049159;28;20435;-69
2022/12/28 09:27:22;;;;;;;10.10;6.70;;;9.10;99.90;;;;;;5049548;28;20028;-69
2022/12/28 09:29:47;;;;;;;11.65;6.75;;;9.10;99.90;;;;;;5082112;28;20041;-69
2022/12/28 09:32:13;;;;;;;11.57;6.97;;;9.10;99.90;;;;;;5064041;28;20032;-69
2022/12/28 09:34:38;;;;;;;11.95;7.35;;;9.10;99.90;;;;;;5050679;28;20037;-69
2022/12/28 09:37:05;;;;;;;9.43;6.18;;;9.10;99.90;;;;;;5067883;28;20037;-69
2022/12/28 09:39:31;;;;;;;12.88;7.47;;;9.10;99.90;;;;;;5049242;28;20119;-69
2022/12/28 09:42:20;;;;;;;12.35;8.40;;;9.10;99.90;;;;;;5049927;28;20084;-69
2022/12/28 09:44:54;;;;;;;11.95;7.53;;;9.20;99.90;;;;;;5065837;28;20044;-69
2022/12/28 09:47:25;;;;;;;12.57;7.10;;;9.20;99.90;;;;;;5066654;28;20050;-69
2022/12/28 09:50:15;;;;;;;12.57;6.75;;;9.10;99.90;;;;;;5049628;28;20101;-69
2022/12/28 09:53:15;;;;;;;10.38;6.18;;;9.20;99.90;;;;;;5048317;28;20033;-69
2022/12/28 09:56:22;;;;;;;8.77;5.63;;;9.20;99.90;;;;;;5049642;28;20151;-69
2022/12/28 09:58:48;;;;;;;10.40;6.40;;;9.20;99.90;;;;;;5049701;28;20041;-69
2022/12/28 10:01:16;;;;;;;10.82;7.10;;;9.20;99.90;;;;;;5066748;28;20045;-69
2022/12/28 10:03:44;;;;;;;11.43;6.50;;;9.20;99.90;;;;;;5065885;28;20052;-70
2022/12/28 10:06:16;;;;;;;10.38;6.63;;;9.20;99.90;;;;;;5051250;28;20491;-70
2022/12/28 10:08:57;;;;;;;12.52;6.72;;;9.20;99.90;;;;;;5064478;28;20067;-70
2022/12/28 10:11:26;;;;;;;12.73;6.88;;;9.20;99.90;;;;;;5047025;28;20048;-70
2022/12/28 10:14:00;;;;;;;12.10;6.65;;;9.20;99.90;;;;;;5065899;28;20044;-70
2022/12/28 10:16:30;;;;;;;10.77;6.10;;;9.20;99.90;;;;;;5064094;28;20036;-70
2022/12/28 10:18:56;;;;;;;12.75;6.68;;;9.20;99.90;;;;;;5048771;28;20101;-70
2022/12/28 10:21:23;;;;;;;12.32;7.18;;;9.20;99.90;;;;;;5081170;28;20450;-70
2022/12/28 10:23:52;;;;;;;14.93;9.20;;;9.20;99.90;;;;;;5063964;28;20145;-70
2022/12/28 10:26:19;;;;;;;16.17;9.77;;;9.20;99.90;;;;;;5049816;28;20044;-70
2022/12/28 10:28:51;;;;;;;17.52;10.88;;;9.20;99.90;;;;;;5049872;28;20052;-70
2022/12/28 10:31:31;;;;;;;17.85;10.55;;;9.20;99.90;;;;;;5066065;28;20113;-69
2022/12/28 10:33:56;;;;;;;18.65;10.88;;;9.30;99.90;;;;;;5078915;28;20074;-70
2022/12/28 10:36:23;;;;;;;15.95;9.57;;;9.30;99.90;;;;;;5049832;28;20040;-70
2022/12/28 10:38:53;;;;;;;17.60;8.57;;;9.30;99.90;;;;;;5063695;28;20458;-70
2022/12/28 10:41:19;;;;;;;13.20;8.02;;;9.30;99.90;;;;;;5048698;28;20053;-69
2022/12/28 10:43:50;;;;;;;15.38;9.68;;;9.30;99.90;;;;;;5048923;28;20040;-70
2022/12/28 10:46:21;;;;;;;14.77;7.78;;;9.30;99.90;;;;;;5063093;28;20040;-69
2022/12/28 10:48:53;;;;;;;14.23;8.55;;;9.30;99.90;;;;;;5057998;28;20116;-70
2022/12/28 10:51:24;;;;;;;13.15;8.07;;;9.30;99.90;;;;;;5062275;28;20128;-70
2022/12/28 10:53:54;;;;;;;12.20;7.82;;;9.30;99.90;;;;;;5061112;28;20045;-70
2022/12/28 10:56:22;;;;;;;12.75;7.75;;;9.30;99.90;;;;;;5046467;28;20032;-69
2022/12/28 10:58:50;;;;;;;12.93;7.72;;;9.30;99.90;;;;;;5052982;28;20063;-70
2022/12/28 11:01:22;;;;;;;11.68;6.90;;;9.30;99.90;;;;;;5063794;28;20044;-70
2022/12/28 11:04:14;;;;;;;13.05;7.60;;;9.30;99.90;;;;;;5039171;28;20152;-69
2022/12/28 11:06:55;;;;;;;12.18;6.75;;;9.30;99.90;;;;;;5038092;28;20089;-70
2022/12/28 11:09:32;;;;;;;11.95;6.40;;;9.40;99.90;;;;;;5059063;28;20045;-70
2022/12/28 11:12:25;;;;;;;11.52;6.80;;;9.40;99.90;;;;;;5079097;28;20050;-71
2022/12/28 11:14:51;;;;;;;9.13;5.90;;;9.40;99.90;;;;;;5047904;28;20123;-71
2022/12/28 11:17:19;;;;;;;10.23;6.05;;;9.40;99.90;;;;;;5076851;28;20040;-71
2022/12/28 11:19:47;;;;;;;10.90;5.65;;;9.40;99.90;;;;;;5060887;28;20066;-71
2022/12/28 11:22:19;;;;;;;10.73;6.13;;;9.40;99.90;;;;;;5054597;28;20407;-71
2022/12/28 11:24:45;;;;;;;8.68;5.30;;;9.40;99.90;;;;;;5047041;28;20079;-71
2022/12/28 11:27:17;;;;;;;10.45;5.90;;;9.40;99.90;;;;;;5046755;28;20403;-71
2022/12/28 11:29:46;;;;;;;11.18;6.22;;;9.40;99.90;;;;;;5060944;28;20049;-71
2022/12/28 11:32:20;;;;;;;9.40;5.57;;;9.40;99.90;;;;;;5061100;28;20453;-71
2022/12/28 11:34:46;;;;;;;9.73;5.45;;;9.40;99.90;;;;;;5064568;28;20143;-71
2022/12/28 11:37:13;;;;;;;8.45;4.72;;;9.40;99.90;;;;;;5048328;28;20693;-71
2022/12/28 11:39:45;;;;;;;8.57;4.65;;;9.40;99.90;;;;;;5044837;28;20036;-71
2022/12/28 11:42:37;;;;;;;9.35;5.20;;;9.40;99.90;;;;;;5061055;28;20090;-71
2022/12/28 11:45:14;;;;;;;7.90;4.57;;;9.40;99.90;;;;;;5032978;28;20774;-69
2022/12/28 11:47:40;;;;;;;7.90;4.78;;;9.40;99.90;;;;;;5062170;28;20614;-71
2022/12/28 11:50:35;;;;;;;7.13;4.45;;;9.30;99.90;;;;;;5060324;28;20129;-70
2022/12/28 11:53:02;;;;;;;8.82;5.30;;;9.40;99.90;;;;;;5048830;28;20050;-70
2022/12/28 11:55:43;;;;;;;10.07;5.70;;;9.30;99.90;;;;;;5056753;28;20124;-70
2022/12/28 11:58:37;;;;;;;8.68;5.60;;;9.30;99.90;;;;;;5062809;28;20043;-70
2022/12/28 12:01:03;;;;;;;7.35;5.18;;;9.30;99.90;;;;;;5041440;28;20056;-70
2022/12/28 12:03:58;;;;;;;10.02;5.75;;;9.30;99.90;;;;;;5047463;28;20059;-70
2022/12/28 12:06:42;;;;;;;11.23;6.00;;;9.30;99.90;;;;;;5058346;28;20503;-70
2022/12/28 12:09:41;;;;;;;10.33;5.73;;;9.30;99.90;;;;;;5062335;28;20404;-71
2022/12/28 12:12:13;;;;;;;11.75;7.43;;;9.30;99.90;;;;;;5045300;28;20811;-71
2022/12/28 12:14:49;;;;;;;8.15;4.65;;;9.30;99.90;;;;;;5061458;28;20390;-70
2022/12/28 12:17:24;;;;;;;12.25;6.65;;;9.30;99.90;;;;;;5062326;28;20043;-70
2022/12/28 12:19:57;;;;;;;12.23;6.82;;;9.20;99.90;;;;;;5047363;28;20056;-70
2022/12/28 12:22:28;;;;;;;12.15;7.15;;;9.20;99.90;;;;;;5057551;28;20040;-70
2022/12/28 12:25:01;;;;;;;11.70;6.93;;;9.30;99.90;;;;;;5059609;28;20052;-70
2022/12/28 12:27:32;;;;;;;10.20;6.50;;;9.20;99.90;;;;;;5042497;28;20044;-70
2022/12/28 12:30:04;;;;;;;12.68;7.32;;;9.20;99.90;;;;;;5057554;28;20047;-70
2022/12/28 12:32:50;;;;;;;11.00;7.03;;;9.20;99.90;;;;;;5043679;28;20033;-70
2022/12/28 12:35:21;;;;;;;9.93;6.35;;;9.20;99.90;;;;;;5043149;28;20037;-70
2022/12/28 12:38:19;;;;;;;10.90;6.40;;;9.20;99.90;;;;;;5047119;28;20079;-70
2022/12/28 12:41:04;;;;;;;9.55;5.68;;;9.20;99.90;;;;;;5049948;28;20052;-70
2022/12/28 12:43:35;;;;;;;9.32;6.07;;;9.20;99.90;;;;;;5051053;28;20041;-69
2022/12/28 12:46:23;;;;;;;9.13;5.95;;;9.20;99.90;;;;;;5050217;28;20067;-70
2022/12/28 12:49:23;;;;;;;9.65;6.18;;;9.20;99.90;;;;;;5063004;28;20198;-70
2022/12/28 12:52:20;;;;;;;9.73;6.15;;;9.30;99.90;;;;;;5067003;28;20083;-70
2022/12/28 12:55:08;;;;;;;10.70;5.53;;;9.20;99.90;;;;;;5048933;28;20090;-69
2022/12/28 12:57:41;;;;;;;8.02;4.82;;;9.20;99.90;;;;;;5050771;28;20039;-69
2022/12/28 13:00:10;;;;;;;7.93;5.18;;;9.20;99.90;;;;;;5058893;28;20037;-69
2022/12/28 13:03:15;;;;;;;7.32;4.78;;;9.20;99.90;;;;;;5062988;28;20380;-70
2022/12/28 13:05:43;;;;;;;8.93;4.60;;;9.20;99.90;;;;;;5042224;28;20039;-69
2022/12/28 13:08:20;;;;;;;8.43;4.72;;;9.20;99.90;;;;;;5065110;28;20041;-70
2022/12/28 13:10:45;;;;;;;11.52;5.55;;;9.20;99.90;;;;;;5062348;28;20131;-70
2022/12/28 13:13:24;;;;;;;8.30;4.80;;;9.20;99.90;;;;;;5049101;28;20132;-70
2022/12/28 13:15:50;;;;;;;8.68;5.03;;;9.20;99.90;;;;;;5067123;28;20040;-71
2022/12/28 13:18:18;;;;;;;8.40;5.45;;;9.20;99.90;;;;;;5063994;28;20041;-70
2022/12/28 13:20:58;;;;;;;8.38;5.07;;;9.20;99.90;;;;;;5050493;28;20040;-70
2022/12/28 13:23:25;;;;;;;6.90;4.55;;;9.20;99.90;;;;;;5061242;28;20041;-70
2022/12/28 13:25:53;;;;;;;9.00;4.90;;;9.20;99.90;;;;;;5050135;28;20043;-70
2022/12/28 13:28:31;;;;;;;9.07;5.50;;;9.10;99.90;;;;;;5050505;28;20044;-70
2022/12/28 13:31:04;;;;;;;9.10;5.20;;;9.20;99.90;;;;;;5064525;28;20409;-70